Rome, OR

3:32 AM MDT on August 30, 2016 (GMT -0600)
Mountain Home Air Force Base | | Change Station
Active Advisory: Fire Weather Warning

Elev 2995 ft 43.04 °N, 115.87 °W | Updated 34 minutes ago

Clear
Clear
61 °F
Feels Like 61 °F
N
4
Wind Variable Wind from East

Today
High -- | Low -- °F
--% Chance of Precip.
Yesterday
High -- | Low -- °F
Precip. -- in
Pressure 29.92 in
Visibility 10.0 miles
Clouds Clear
Dew Point 35 °F
Humidity 38%
Rainfall 0.00 in
Snow Depth Not available.
7:13 AM 8:26 PM
Waning Crescent, 4% visible
METAR KMUO 300858Z AUTO 10003KT 10SM CLR 16/02 A3000 RMK AO2 SLP132 T01610019 57004 $
Pressure 29.92 in
Visibility 10.0 miles
Clouds Clear
Dew Point 35 °F
Humidity 38%
Rainfall 0.00 in
Snow Depth Not available.
7:13 AM 8:26 PM
Waning Crescent, 4% visible
METAR KMUO 300858Z AUTO 10003KT 10SM CLR 16/02 A3000 RMK AO2 SLP132 T01610019 57004 $

10-Day Weather Forecast

Almanac

Astronomy

Aug. 30, 2016 Rise Set
Actual Time
Civil Twilight
Nautical Twilight
Astronomical Twilight
Moon
Length of Visible Light
Length of Day
Tomorrow will be .
, % of the Moon is Illuminated

Today's Extremes

State Highs State Lows

Community

WunderPhotos

Upload Photos

1,935,795 photos uploaded!

WunderBlog® & News

Nearby

Air Quality

  Air Quality AQ Index Pollutant
Not available.

Snow Depth

Station Depth Elevation

Earthquake Activity

City Distance Mag. Time & Date
Minimum magnitude displayed is 2.5.

Coastal Water Temperatures

Place Temperature

Stations

Nearby Weather Stations

Station Location Temp. Windchill Dew Point Humidity Wind Precip. Elev Updated Type
                   

Watches & Warnings

Fire Weather Warning
Issued: 12:52 PM PDT Aug. 29, 2016 – National Weather Service

... Red flag warning now in effect until 9 PM MDT /8 PM PDT/
Tuesday for gusty winds... low relative humidity... and high
Haines for the Burns blm... Vale blm... and Baker Valley - which
are fire weather zones 636... 637... and 646...

* winds... southwest 10 to 20 mph... with gusts to 30 mph. Winds
will decrease overnight but only increase once again in the
afternoon.

* Relative humidity... less than 10 percent.

* Haines... 6 through the period.

Precautionary/preparedness actions...

A red flag warning means that critical fire weather conditions
are either occurring now... or will shortly.




W h